Time;durP1;ratioP1;P1;durP2;ratioP2;P2;SDS_P1;SDS_P2;PMS_P1;PMS_P2;Temp;Humidity;BMP_temperature;BMP_pressure;BME280_temperature;BME280_humidity;BME280_pressure;Samples;Min_cycle;Max_cycle;Signal;HPM_P1;HPM_P2
2023/06/07 00:01:20;;;;;;;4.47;4.17;;;;;;;14.10;100.00;97790.31;6052845;29;20253;-49
2023/06/07 00:04:22;;;;;;;5.83;4.20;;;;;;;14.18;100.00;97808.53;6053538;29;20323;-48
2023/06/07 00:07:25;;;;;;;5.17;4.77;;;;;;;14.05;100.00;97778.78;6062498;29;20582;-50
2023/06/07 00:10:28;;;;;;;4.83;4.43;;;;;;;14.19;100.00;97799.47;6052800;29;20237;-50
2023/06/07 00:13:31;;;;;;;4.90;4.50;;;;;;;14.16;100.00;97791.94;6054042;29;20591;-50
2023/06/07 00:16:33;;;;;;;4.60;4.20;;;;;;;14.19;100.00;97794.09;6056828;29;20324;-48
2023/06/07 00:19:36;;;;;;;4.93;4.53;;;;;;;14.19;100.00;97794.09;6048903;29;20248;-47
2023/06/07 00:22:38;;;;;;;5.10;4.70;;;;;;;14.19;100.00;97793.28;6053031;29;20247;-49
2023/06/07 00:25:42;;;;;;;4.40;4.10;;;;;;;14.18;100.00;97792.47;6053350;29;20240;-48
2023/06/07 00:28:44;;;;;;;4.57;4.17;;;;;;;14.18;100.00;97795.16;6051312;29;20261;-49
2023/06/07 00:31:47;;;;;;;5.17;4.77;;;;;;;14.13;100.00;97792.44;6048289;29;20329;-47
2023/06/07 00:34:49;;;;;;;5.00;4.60;;;;;;;14.17;100.00;97796.22;6051063;29;20743;-46
2023/06/07 00:37:52;;;;;;;4.70;4.30;;;;;;;14.18;100.00;97786.31;6051749;29;20233;-48
2023/06/07 00:40:55;;;;;;;5.10;4.70;;;;;;;14.18;100.00;97788.97;6053803;29;20239;-49
2023/06/07 00:43:57;;;;;;;5.30;4.90;;;;;;;14.06;100.00;97765.09;6040686;29;20288;-46
2023/06/07 00:47:01;;;;;;;5.17;4.77;;;;;;;14.19;100.00;97790.63;6051551;29;20240;-47
2023/06/07 00:50:04;;;;;;;4.93;4.60;;;;;;;14.18;100.00;97794.34;6051646;29;20241;-47
2023/06/07 00:53:08;;;;;;;4.97;4.57;;;;;;;14.18;100.00;97791.66;6052371;29;20255;-50
2023/06/07 00:56:11;;;;;;;4.87;4.10;;;;;;;14.16;100.00;97791.13;6048892;29;20260;-47
2023/06/07 00:59:13;;;;;;;5.17;4.67;;;;;;;14.16;100.00;97791.13;6051132;29;20302;-48
2023/06/07 01:02:16;;;;;;;5.97;4.50;;;;;;;14.15;100.00;97786.84;6050648;29;20237;-48
2023/06/07 01:05:20;;;;;;;4.83;4.43;;;;;;;14.14;100.00;97794.09;6053402;29;20401;-50
2023/06/07 01:08:26;;;;;;;5.00;4.50;;;;;;;14.10;100.00;97782.28;6049545;29;20225;-50
2023/06/07 01:11:28;;;;;;;4.87;4.47;;;;;;;14.14;100.00;97787.91;6061537;29;20323;-49
2023/06/07 01:14:33;;;;;;;4.80;4.37;;;;;;;14.14;100.00;97785.25;6064089;29;20304;-48
2023/06/07 01:17:40;;;;;;;6.43;4.67;;;;;;;14.14;100.00;97775.31;6051791;29;20236;-48
2023/06/07 01:20:54;;;;;;;4.73;4.33;;;;;;;14.15;100.00;97779.63;6050926;29;20247;-49
2023/06/07 01:23:59;;;;;;;7.23;4.57;;;;;;;14.15;100.00;97779.63;6050752;29;20245;-50
2023/06/07 01:27:04;;;;;;;4.30;4.00;;;;;;;13.49;100.00;97677.56;6065750;29;20274;-48
2023/06/07 01:30:10;;;;;;;4.93;3.53;;;;;;;14.18;100.00;97783.63;6053403;29;20239;-47
2023/06/07 01:33:14;;;;;;;4.63;4.13;;;;;;;14.18;100.00;97781.75;6047984;29;20328;-48
2023/06/07 01:36:18;;;;;;;4.13;3.83;;;;;;;14.14;100.00;97778.00;6057362;29;20705;-47
2023/06/07 01:39:21;;;;;;;4.97;4.57;;;;;;;14.18;100.00;97771.03;6055788;29;20209;-50
2023/06/07 01:42:24;;;;;;;5.00;4.60;;;;;;;14.17;100.00;97772.09;6053969;29;20243;-47
2023/06/07 01:45:29;;;;;;;5.43;4.50;;;;;;;14.15;100.00;97776.94;6050581;29;20364;-48
2023/06/07 01:48:32;;;;;;;5.23;3.80;;;;;;;14.15;100.00;97776.13;6055465;29;20234;-50
2023/06/07 01:51:35;;;;;;;4.53;4.13;;;;;;;14.14;100.00;97767.28;6049850;29;20276;-50
2023/06/07 01:54:38;;;;;;;4.33;3.97;;;;;;;14.15;100.00;97768.91;6056848;29;20225;-48
2023/06/07 01:57:52;;;;;;;4.57;4.23;;;;;;;13.90;100.00;97732.09;6052072;29;20341;-47
2023/06/07 02:01:07;;;;;;;4.80;4.40;;;;;;;14.16;100.00;97770.50;6056061;29;20289;-50
2023/06/07 02:04:15;;;;;;;5.17;4.73;;;;;;;14.17;100.00;97769.44;6048587;29;20245;-49
2023/06/07 02:07:24;;;;;;;4.87;4.47;;;;;;;14.18;100.00;97762.19;6065378;29;20240;-48
2023/06/07 02:10:28;;;;;;;5.87;5.37;;;;;;;14.19;100.00;97759.28;6050459;29;20237;-47
2023/06/07 02:13:35;;;;;;;5.60;5.17;;;;;;;14.20;100.00;97760.06;6050009;29;20237;-47
2023/06/07 02:16:37;;;;;;;5.30;4.80;;;;;;;14.19;100.00;97761.16;6046065;29;20241;-51
2023/06/07 02:19:43;;;;;;;5.20;4.50;;;;;;;13.93;100.00;97722.72;6051324;29;20237;-47
2023/06/07 02:22:45;;;;;;;5.07;4.67;;;;;;;14.19;100.00;97759.28;6049540;29;20273;-50
2023/06/07 02:25:48;;;;;;;6.73;4.90;;;;;;;14.19;100.00;97753.09;6065603;29;20245;-50
2023/06/07 02:28:51;;;;;;;6.40;5.80;;;;;;;14.17;100.00;97758.72;6051240;29;20319;-51
2023/06/07 02:31:57;;;;;;;4.90;4.50;;;;;;;14.17;100.00;97756.03;6048721;29;20736;-50
2023/06/07 02:35:00;;;;;;;4.90;4.50;;;;;;;14.17;100.00;97745.31;6047907;29;20236;-48
2023/06/07 02:38:03;;;;;;;5.97;5.47;;;;;;;14.00;100.00;97739.38;6064878;29;20249;-49
2023/06/07 02:41:06;;;;;;;5.90;5.17;;;;;;;14.16;100.00;97754.44;6064563;29;20243;-51
2023/06/07 02:44:08;;;;;;;4.50;4.20;;;;;;;14.16;100.00;97754.44;6064205;29;20245;-51
2023/06/07 02:47:10;;;;;;;5.80;5.10;;;;;;;14.13;100.00;97752.25;6068849;29;20319;-50
2023/06/07 02:50:13;;;;;;;4.87;4.47;;;;;;;14.18;100.00;97754.16;6047069;29;20235;-48
2023/06/07 02:53:15;;;;;;;5.07;4.67;;;;;;;14.19;100.00;97753.91;6065649;29;20282;-47
2023/06/07 02:56:18;;;;;;;6.00;5.50;;;;;;;14.17;100.00;97756.03;6039956;29;20241;-48
2023/06/07 02:59:21;;;;;;;5.60;5.10;;;;;;;14.17;100.00;97750.66;6045984;29;20245;-51
2023/06/07 03:02:23;;;;;;;5.90;5.40;;;;;;;14.16;100.00;97754.44;6054125;29;20290;-50
2023/06/07 03:05:28;;;;;;;6.43;5.90;;;;;;;14.15;100.00;97758.19;6066316;29;20225;-51
2023/06/07 03:08:36;;;;;;;6.20;5.30;;;;;;;14.12;100.00;97753.34;6071780;29;20706;-49
2023/06/07 03:11:40;;;;;;;5.97;5.47;;;;;;;13.82;100.00;97710.38;6048802;29;20244;-48
2023/06/07 03:14:42;;;;;;;6.27;5.47;;;;;;;14.15;100.00;97757.38;6047971;29;20245;-49
2023/06/07 03:17:48;;;;;;;9.13;5.70;;;;;;;14.16;100.00;97758.97;6040928;29;20624;-47
2023/06/07 03:20:51;;;;;;;6.90;6.20;;;;;;;14.19;100.00;97763.81;6048048;29;20807;-48
2023/06/07 03:23:54;;;;;;;7.47;6.10;;;;;;;14.23;100.00;97759.53;6063941;29;20883;-48
2023/06/07 03:26:57;;;;;;;7.33;5.90;;;;;;;14.27;100.00;97763.28;6046586;29;20296;-50
2023/06/07 03:30:00;;;;;;;10.57;5.73;;;;;;;14.31;100.00;97761.72;6048449;29;20235;-48
2023/06/07 03:33:10;;;;;;;5.53;5.03;;;;;;;14.31;100.00;97769.75;6052209;29;20247;-49
2023/06/07 03:36:17;;;;;;;7.80;7.00;;;;;;;14.31;100.00;97766.25;6050264;29;20224;-47
2023/06/07 03:39:20;;;;;;;8.10;7.40;;;;;;;14.37;100.00;97765.19;6050099;29;22647;-50
2023/06/07 03:42:23;;;;;;;13.57;11.43;;;;;;;14.55;100.00;97764.75;6064489;29;20309;-49
2023/06/07 03:45:26;;;;;;;13.87;12.30;;;;;;;14.39;100.00;97714.84;6064348;29;20704;-47
2023/06/07 03:48:37;;;;;;;15.77;13.30;;;;;;;14.77;100.00;97767.19;6052717;29;20236;-47
2023/06/07 03:51:43;;;;;;;15.13;12.90;;;;;;;14.61;100.00;97734.19;6048062;29;20604;-48
2023/06/07 03:54:46;;;;;;;18.17;14.93;;;;;;;14.75;100.00;97747.88;6063174;29;20236;-46
2023/06/07 03:57:48;;;;;;;15.37;13.57;;;;;;;14.86;100.00;97765.59;6047783;29;20352;-47
2023/06/07 04:00:53;;;;;;;15.03;13.43;;;;;;;14.88;100.00;97770.72;6067121;29;20256;-50
2023/06/07 04:03:55;;;;;;;13.77;12.37;;;;;;;14.89;100.00;97764.25;6055591;29;20735;-49
2023/06/07 04:07:00;;;;;;;14.53;13.03;;;;;;;14.91;100.00;97768.28;6060068;29;20229;-51
2023/06/07 04:10:04;;;;;;;15.60;13.33;;;;;;;14.82;100.00;97766.38;6051386;29;20255;-51
2023/06/07 04:13:08;;;;;;;14.70;12.80;;;;;;;14.75;100.00;97734.47;6056339;29;20998;-49
2023/06/07 04:16:11;;;;;;;14.23;12.83;;;;;;;14.97;100.00;97769.06;6052164;29;20240;-48
2023/06/07 04:19:16;;;;;;;17.53;12.97;;;;;;;14.98;100.00;97761.88;6050437;29;20776;-47
2023/06/07 04:22:20;;;;;;;13.37;12.07;;;;;;;14.99;100.00;97760.78;6067612;29;20240;-49
2023/06/07 04:25:31;;;;;;;14.07;12.67;;;;;;;14.95;100.00;97774.72;6064996;29;20244;-48
2023/06/07 04:28:35;;;;;;;13.60;12.20;;;;;;;14.99;100.00;97771.50;6056646;29;20324;-48
2023/06/07 04:31:39;;;;;;;14.37;12.30;;;;;;;14.99;100.00;97772.31;6066901;29;20652;-48
2023/06/07 04:34:47;;;;;;;15.03;11.43;;;;;;;15.00;100.00;97776.59;6072556;29;20245;-49
2023/06/07 04:37:51;;;;;;;14.23;11.43;;;;;;;15.00;100.00;97781.16;6067658;29;20745;-47
2023/06/07 04:40:54;;;;;;;12.20;10.83;;;;;;;15.00;100.00;97784.66;6064622;29;20320;-47
2023/06/07 04:44:28;;;;;;;10.90;9.80;;;;;;;14.95;100.00;97781.97;6069463;29;20233;-46
2023/06/07 04:47:45;;;;;;;10.73;9.63;;;;;;;15.00;100.00;97792.69;6065920;29;20233;-49
2023/06/07 04:50:51;;;;;;;9.37;8.43;;;;;;;15.00;100.00;97794.59;6061127;29;20229;-48
2023/06/07 04:54:01;;;;;;;12.13;10.93;;;;;;;14.99;100.00;97785.72;6050582;29;20249;-49
2023/06/07 04:57:08;;;;;;;10.30;9.23;;;;;;;14.99;100.00;97788.41;6061113;29;20896;-47
2023/06/07 05:00:14;;;;;;;10.63;9.03;;;;;;;15.01;100.00;97788.94;6065448;29;20689;-49
2023/06/07 05:03:21;;;;;;;9.80;8.90;;;;;;;15.04;100.00;97793.78;6065843;29;20221;-48
2023/06/07 05:06:36;;;;;;;10.27;9.30;;;;;;;14.88;100.00;97771.50;6047062;29;20237;-49
2023/06/07 05:09:42;;;;;;;9.87;8.87;;;;;;;15.08;100.00;97799.44;6065205;29;20323;-48
2023/06/07 05:12:45;;;;;;;9.60;8.63;;;;;;;14.98;100.00;97777.97;6066038;29;20324;-48
2023/06/07 05:15:52;;;;;;;9.10;8.20;;;;;;;15.14;100.00;97801.03;6066053;29;20738;-48
2023/06/07 05:18:56;;;;;;;9.77;8.77;;;;;;;15.12;100.00;97798.63;6049591;29;20241;-48
2023/06/07 05:21:59;;;;;;;9.30;8.50;;;;;;;15.15;100.00;97803.44;6052147;29;20244;-47
2023/06/07 05:25:03;;;;;;;9.03;8.13;;;;;;;15.18;100.00;97810.16;6049470;29;20335;-47
2023/06/07 05:28:06;;;;;;;9.60;8.70;;;;;;;15.12;100.00;97795.94;6050392;29;20244;-48
2023/06/07 05:31:19;;;;;;;8.30;7.60;;;;;;;15.22;100.00;97809.34;6065637;29;20317;-50
2023/06/07 05:34:22;;;;;;;8.63;7.80;;;;;;;15.23;100.00;97808.28;6054184;29;20244;-47
2023/06/07 05:37:25;;;;;;;8.90;8.00;;;;;;;15.23;100.00;97802.91;6046146;29;20328;-48
2023/06/07 05:40:29;;;;;;;8.47;7.70;;;;;;;15.17;100.00;97793.25;6061514;29;20248;-50
2023/06/07 05:43:32;;;;;;;8.03;7.10;;;;;;;15.25;100.00;97810.69;6068591;29;20670;-47
2023/06/07 05:46:34;;;;;;;8.17;7.37;;;;;;;15.24;100.00;97817.13;6046454;29;20235;-47
2023/06/07 05:49:37;;;;;;;8.33;7.53;;;;;;;15.26;100.00;97816.84;6053810;29;20237;-46
2023/06/07 05:52:40;;;;;;;7.80;7.03;;;;;;;15.27;100.00;97810.41;6067432;29;20930;-48
2023/06/07 05:55:45;;;;;;;8.03;7.00;;;;;;;15.21;100.00;97806.94;6049083;29;20680;-48
2023/06/07 05:58:49;;;;;;;8.33;7.63;;;;;;;15.16;100.00;97798.88;6049685;29;20233;-48
2023/06/07 06:01:52;;;;;;;8.30;7.47;;;;;;;15.27;100.00;97827.34;6049906;29;20717;-49
2023/06/07 06:04:56;;;;;;;8.60;7.80;;;;;;;15.28;100.00;97826.25;6051479;29;20244;-50
2023/06/07 06:08:00;;;;;;;8.40;7.60;;;;;;;15.31;100.00;97823.03;6048239;29;20315;-47
2023/06/07 06:11:03;;;;;;;8.40;7.60;;;;;;;15.29;100.00;97825.19;6051605;29;20244;-50
2023/06/07 06:14:05;;;;;;;8.90;8.00;;;;;;;15.13;100.00;97791.38;6050555;29;20574;-47
2023/06/07 06:17:07;;;;;;;8.83;7.97;;;;;;;15.32;100.00;97835.41;6048324;29;20250;-47
2023/06/07 06:20:11;;;;;;;9.37;8.47;;;;;;;15.35;100.00;97836.72;6045789;29;20874;-49
2023/06/07 06:23:14;;;;;;;8.80;7.90;;;;;;;15.21;100.00;97823.03;6050258;29;20241;-50
2023/06/07 06:26:16;;;;;;;9.53;8.63;;;;;;;15.37;100.00;97837.25;6049999;29;20242;-47
2023/06/07 06:29:18;;;;;;;9.70;8.00;;;;;;;15.41;100.00;97838.31;6048079;29;20243;-48
2023/06/07 06:32:21;;;;;;;9.10;8.30;;;;;;;15.34;100.00;97824.38;6049781;29;20241;-47
2023/06/07 06:35:24;;;;;;;10.20;8.60;;;;;;;15.18;100.00;97805.59;6051298;29;20568;-49
2023/06/07 06:38:26;;;;;;;8.67;7.87;;;;;;;15.49;100.00;97843.97;6050062;29;20238;-48
2023/06/07 06:41:30;;;;;;;9.50;8.57;;;;;;;15.49;100.00;97840.47;6048819;29;20232;-47
2023/06/07 06:44:33;;;;;;;8.27;7.57;;;;;;;15.47;100.00;97837.28;6059985;29;20631;-49
2023/06/07 06:47:40;;;;;;;9.33;8.43;;;;;;;15.44;100.00;97827.06;6047553;29;20236;-51
2023/06/07 06:50:44;;;;;;;9.40;8.53;;;;;;;15.57;100.00;97848.00;6049183;29;20243;-50
2023/06/07 06:53:46;;;;;;;10.33;9.23;;;;;;;15.59;100.00;97848.53;6048458;29;20241;-48
2023/06/07 06:56:48;;;;;;;10.17;9.17;;;;;;;15.61;100.00;97848.25;6049326;29;20249;-47
2023/06/07 06:59:51;;;;;;;9.43;8.50;;;;;;;15.65;100.00;97855.53;6046772;29;20380;-47
2023/06/07 07:02:53;;;;;;;10.33;9.27;;;;;;;15.66;100.00;97854.47;6050387;29;20241;-47
2023/06/07 07:05:56;;;;;;;8.87;7.97;;;;;;;15.71;100.00;97857.16;6049688;29;20235;-49
2023/06/07 07:08:59;;;;;;;11.33;9.57;;;;;;;15.67;100.00;97857.97;6048568;29;20240;-50
2023/06/07 07:12:03;;;;;;;11.10;10.00;;;;;;;15.72;100.00;97866.81;6044519;29;20600;-47
2023/06/07 07:15:06;;;;;;;10.10;9.20;;;;;;;15.72;100.00;97863.34;6050267;29;20277;-47
2023/06/07 07:18:08;;;;;;;10.23;9.33;;;;;;;15.73;100.00;97867.63;6049629;29;20225;-49
2023/06/07 07:21:11;;;;;;;9.50;8.60;;;;;;;15.70;100.00;97868.16;6049359;29;20227;-47
2023/06/07 07:24:13;;;;;;;9.93;8.93;;;;;;;15.72;100.00;97872.19;6049723;29;20264;-45
2023/06/07 07:27:17;;;;;;;10.27;9.27;;;;;;;15.76;100.00;97868.94;6054492;29;20309;-46
2023/06/07 07:30:19;;;;;;;10.00;9.10;;;;;;;15.77;100.00;97879.44;6053411;29;20354;-45
2023/06/07 07:33:22;;;;;;;10.43;8.70;;;;;;;15.80;100.00;97878.06;6052586;29;20248;-46
2023/06/07 07:36:24;;;;;;;9.67;8.60;;;;;;;15.76;100.00;97885.06;6052710;29;20237;-44
2023/06/07 07:39:27;;;;;;;8.77;7.97;;;;;;;15.78;100.00;97878.34;6059401;29;20247;-46
2023/06/07 07:42:29;;;;;;;8.27;7.47;;;;;;;15.80;100.00;97883.44;6052761;29;20315;-45
2023/06/07 07:45:31;;;;;;;7.30;6.70;;;;;;;15.78;100.00;97880.25;6050280;29;20229;-47
2023/06/07 07:48:34;;;;;;;7.50;6.83;;;;;;;15.80;100.00;97886.94;6053678;29;20284;-46
2023/06/07 07:51:37;;;;;;;7.30;6.70;;;;;;;15.85;100.00;97886.94;6053735;29;20232;-46
2023/06/07 07:54:39;;;;;;;8.03;6.73;;;;;;;15.85;100.00;97886.94;6067844;29;20848;-47
2023/06/07 07:57:42;;;;;;;6.20;5.70;;;;;;;15.76;100.00;97874.31;6054241;29;20235;-47
2023/06/07 08:00:47;;;;;;;6.27;5.70;;;;;;;15.80;100.00;97889.63;6048369;29;20240;-45
2023/06/07 08:03:50;;;;;;;7.30;5.83;;;;;;;15.59;100.00;97837.78;6058523;29;20668;-45
2023/06/07 08:06:54;;;;;;;6.20;5.70;;;;;;;15.91;100.00;97883.19;6053340;29;20242;-46
2023/06/07 08:09:56;;;;;;;6.07;5.57;;;;;;;15.94;100.00;97885.31;6054527;29;20720;-45
2023/06/07 08:12:59;;;;;;;6.13;5.40;;;;;;;15.98;100.00;97886.38;6052406;29;20244;-47
2023/06/07 08:16:01;;;;;;;5.33;4.93;;;;;;;15.79;100.00;97847.72;6053193;29;20244;-46
2023/06/07 08:19:06;;;;;;;4.77;4.40;;;;;;;16.07;100.00;97883.97;6056434;29;20271;-46
2023/06/07 08:22:12;;;;;;;4.93;4.53;;;;;;;14.80;100.00;97690.78;6082488;23;20233;-92
2023/06/07 08:25:14;;;;;;;4.57;4.23;;;;;;;15.00;100.00;97720.25;6067228;29;20249;-90
2023/06/07 08:28:20;;;;;;;4.47;4.17;;;;;;;14.32;100.00;97596.38;6056970;29;20579;-93
2023/06/07 08:31:26;;;;;;;5.30;4.77;;;;;;;14.87;100.00;97673.31;6049746;29;20241;-92
2023/06/07 08:34:29;;;;;;;6.70;6.10;;;;;;;14.40;100.00;97604.69;6045496;29;20246;-92
2023/06/07 08:37:35;;;;;;;5.33;4.83;;;;;;;14.79;100.00;97646.25;6043263;29;20502;-92
2023/06/07 08:40:39;;;;;;;5.03;4.47;;;;;;;15.00;100.00;97671.97;6044461;29;20256;-91
2023/06/07 08:43:44;;;;;;;4.40;4.10;;;;;;;14.12;100.00;97560.44;6050786;29;20236;-91
2023/06/07 08:46:48;;;;;;;4.47;4.07;;;;;;;16.39;100.00;97902.41;6055538;29;20235;-92
2023/06/07 08:49:57;;;;;;;4.63;4.23;;;;;;;14.03;100.00;97497.75;6047569;29;20233;-91
2023/06/07 08:53:08;;;;;;;4.93;4.53;;;;;;;15.00;100.00;97642.47;6038278;29;20315;-94
2023/06/07 08:56:12;;;;;;;5.13;4.63;;;;;;;15.76;100.00;97748.06;6044837;29;20249;-90
2023/06/07 08:59:20;;;;;;;5.70;5.23;;;;;;;15.56;100.00;97711.31;6067754;29;20236;-90
2023/06/07 09:02:25;;;;;;;4.20;3.90;;;;;;;15.38;99.36;97667.09;6055894;29;20232;-91
2023/06/07 09:05:28;;;;;;;4.87;4.47;;;;;;;15.33;99.05;97662.53;6075617;29;20244;-92
2023/06/07 09:08:38;;;;;;;4.87;4.40;;;;;;;15.15;99.15;97642.44;6074513;29;20235;-92
2023/06/07 09:11:41;;;;;;;4.90;4.50;;;;;;;16.39;96.57;97815.56;6059633;29;20237;-93
2023/06/07 09:14:49;;;;;;;4.77;4.37;;;;;;;15.29;96.10;97637.31;6071598;29;20275;-90
2023/06/07 09:17:58;;;;;;;5.47;4.50;;;;;;;16.08;95.89;97745.00;6078088;29;20261;-89
2023/06/07 09:21:19;;;;;;;5.47;4.97;;;;;;;16.55;94.43;97827.06;6080762;29;20327;-90
2023/06/07 09:24:28;;;;;;;5.53;5.03;;;;;;;16.44;95.25;97791.34;6082729;29;20243;-90
2023/06/07 09:27:32;;;;;;;5.63;5.17;;;;;;;15.64;95.70;97657.88;6065112;29;20221;-90
2023/06/07 09:30:36;;;;;;;8.10;5.83;;;;;;;15.75;95.04;97639.84;6084775;29;20247;-90
2023/06/07 09:33:39;;;;;;;5.67;5.10;;;;;;;16.86;88.91;97749.72;6086989;29;20232;-91
2023/06/07 09:36:51;;;;;;;6.20;5.30;;;;;;;15.65;90.74;97543.22;6076764;29;20221;-91
2023/06/07 09:40:07;;;;;;;6.30;5.70;;;;;;;16.61;90.79;97689.59;6072598;29;20257;-90
2023/06/07 09:43:09;;;;;;;5.93;5.40;;;;;;;17.71;87.49;97811.16;6079395;29;20245;-91
2023/06/07 09:46:14;;;;;;;5.80;5.30;;;;;;;17.03;87.21;97705.13;6069077;29;20332;-90
2023/06/07 09:49:23;;;;;;;6.43;5.93;;;;;;;17.57;92.30;97751.75;6062904;29;20241;-90
2023/06/07 09:52:26;;;;;;;6.50;5.90;;;;;;;16.80;88.04;97627.88;6083014;29;20272;-89
2023/06/07 09:55:31;;;;;;;5.83;5.30;;;;;;;18.07;88.14;97800.81;6075470;29;20267;-91
2023/06/07 09:58:34;;;;;;;5.43;4.93;;;;;;;17.99;88.12;97804.19;6078275;29;20260;-92
2023/06/07 10:01:42;;;;;;;5.27;4.80;;;;;;;18.11;85.42;97830.72;6064116;29;20236;-90
2023/06/07 10:04:45;;;;;;;5.10;4.60;;;;;;;17.31;83.49;97691.97;6069423;29;20244;-89
2023/06/07 10:07:54;;;;;;;5.70;4.20;;;;;;;17.71;85.64;97771.56;6066539;29;20236;-90
2023/06/07 10:10:59;;;;;;;4.80;4.40;;;;;;;17.24;86.75;97703.09;6058032;29;20237;-91
2023/06/07 10:14:11;;;;;;;4.10;3.73;;;;;;;17.39;85.95;97733.63;6048402;29;20240;-90
2023/06/07 10:17:20;;;;;;;8.97;4.20;;;;;;;16.73;88.03;97613.94;6049160;29;20233;-91
2023/06/07 10:20:26;;;;;;;5.03;4.50;;;;;;;18.45;88.14;97865.66;6052702;29;20330;-90
2023/06/07 10:23:35;;;;;;;4.27;3.97;;;;;;;17.06;85.93;97644.56;6051273;29;20240;-90
2023/06/07 10:26:53;;;;;;;3.97;3.67;;;;;;;17.99;87.22;97775.31;6050521;29;20539;-91
2023/06/07 10:30:01;;;;;;;3.80;3.50;;;;;;;16.69;81.07;97543.72;6072207;29;20237;-89
2023/06/07 10:33:06;;;;;;;3.90;3.60;;;;;;;17.23;82.09;97611.81;6055627;29;20245;-92
2023/06/07 10:36:10;;;;;;;4.53;3.40;;;;;;;17.88;81.29;97701.06;6046429;29;20225;-88
2023/06/07 10:39:12;;;;;;;4.47;3.40;;;;;;;18.33;80.73;97757.41;6051670;29;20223;-90
2023/06/07 10:42:17;;;;;;;4.37;3.97;;;;;;;18.84;82.63;97851.97;6052384;29;20554;-92
2023/06/07 10:45:19;;;;;;;3.73;3.40;;;;;;;17.60;79.37;97640.75;6026914;29;20217;-90
2023/06/07 10:48:40;;;;;;;3.53;3.23;;;;;;;17.16;81.57;97630.22;6072085;29;20205;-96
2023/06/07 10:51:51;;;;;;;3.93;3.50;;;;;;;18.51;81.46;97846.41;6105991;29;20212;-96
2023/06/07 10:55:51;;;;;;;4.43;4.03;;;;;;;18.72;80.42;97841.63;6090850;23;20236;-47
2023/06/07 10:58:55;;;;;;;4.50;4.10;;;;;;;18.85;78.18;97841.97;6081412;29;20255;-50
2023/06/07 11:02:21;;;;;;;4.70;4.30;;;;;;;18.90;80.49;97844.59;6080004;29;20326;-50
2023/06/07 11:05:53;;;;;;;4.93;4.13;;;;;;;19.08;78.02;97851.91;6078152;29;20243;-52
2023/06/07 11:09:19;;;;;;;4.40;4.00;;;;;;;19.22;77.35;97854.69;6094421;29;20248;-50
2023/06/07 11:12:45;;;;;;;4.07;3.77;;;;;;;19.31;78.63;97850.22;6082497;29;20701;-52
2023/06/07 11:15:48;;;;;;;4.83;3.97;;;;;;;19.37;76.05;97846.34;6081228;29;20315;-52
2023/06/07 11:19:11;;;;;;;3.63;3.33;;;;;;;19.38;76.45;97847.13;6079153;29;20224;-51
2023/06/07 11:22:17;;;;;;;5.30;3.63;;;;;;;19.43;77.71;97850.56;6077891;29;20237;-51
2023/06/07 11:25:19;;;;;;;3.80;3.50;;;;;;;19.43;76.66;97847.03;6079384;29;20248;-52
2023/06/07 11:28:30;;;;;;;4.40;3.83;;;;;;;19.53;76.34;97844.97;6077298;29;20314;-50
2023/06/07 11:31:33;;;;;;;4.77;4.27;;;;;;;19.57;77.38;97846.00;6077469;29;20331;-49
2023/06/07 11:34:35;;;;;;;4.03;3.73;;;;;;;19.69;74.25;97834.72;6084378;29;20340;-52
2023/06/07 11:37:37;;;;;;;4.73;4.23;;;;;;;19.74;69.50;97834.63;6079641;29;20239;-51
2023/06/07 11:40:40;;;;;;;4.87;4.37;;;;;;;19.80;69.81;97836.19;6080512;29;20257;-50
2023/06/07 11:43:45;;;;;;;4.57;4.07;;;;;;;19.74;73.87;97834.63;6076953;29;20235;-51
2023/06/07 11:46:48;;;;;;;7.67;4.97;;;;;;;19.67;73.15;97838.84;6080962;29;20232;-49
2023/06/07 11:49:50;;;;;;;4.10;3.63;;;;;;;19.69;74.59;97837.44;6083778;29;20246;-48
2023/06/07 11:52:53;;;;;;;4.23;3.83;;;;;;;19.80;72.30;97824.53;6099609;28;20707;-50
2023/06/07 11:55:58;;;;;;;4.30;3.90;;;;;;;19.75;73.13;97820.06;6089779;29;20240;-50
2023/06/07 11:59:01;;;;;;;6.00;5.40;;;;;;;20.23;65.26;97835.09;6083770;29;20247;-48
2023/06/07 12:02:04;;;;;;;5.50;5.00;;;;;;;19.99;67.55;97838.00;6079046;29;20240;-48
2023/06/07 12:05:11;;;;;;;5.90;4.90;;;;;;;20.27;68.89;97834.19;6081983;29;20246;-46
2023/06/07 12:08:17;;;;;;;5.63;5.13;;;;;;;20.18;70.47;97827.09;6078329;29;20239;-48
2023/06/07 12:11:23;;;;;;;6.60;4.87;;;;;;;20.36;66.20;97818.06;6080748;29;20236;-49
2023/06/07 12:14:31;;;;;;;5.20;4.70;;;;;;;20.33;68.14;97814.03;6079395;29;20252;-47
2023/06/07 12:17:35;;;;;;;5.60;4.53;;;;;;;20.23;68.55;97772.88;6076474;29;20596;-47
2023/06/07 12:20:40;;;;;;;5.73;4.93;;;;;;;20.62;68.89;97815.66;6082229;29;20244;-47
2023/06/07 12:23:47;;;;;;;5.23;4.73;;;;;;;20.47;67.18;97787.00;6087496;29;20241;-46
2023/06/07 12:26:56;;;;;;;4.90;4.50;;;;;;;20.68;68.99;97803.59;6079491;29;20312;-49
2023/06/07 12:29:59;;;;;;;4.77;4.30;;;;;;;20.76;66.74;97802.09;6079014;29;20331;-47
2023/06/07 12:33:03;;;;;;;4.93;4.43;;;;;;;20.81;68.67;97805.47;6079788;29;20707;-46
2023/06/07 12:36:09;;;;;;;7.23;4.70;;;;;;;20.90;69.14;97802.84;6079186;29;20216;-47
2023/06/07 12:39:13;;;;;;;6.67;4.93;;;;;;;21.17;67.24;97801.94;6078309;29;20272;-48
2023/06/07 12:42:16;;;;;;;6.73;4.73;;;;;;;21.04;62.35;97802.81;6084883;28;20239;-47
2023/06/07 12:45:18;;;;;;;4.27;3.93;;;;;;;21.05;63.03;97802.50;6080263;29;20215;-46
2023/06/07 12:48:20;;;;;;;5.53;4.87;;;;;;;21.33;62.77;97805.13;6077672;29;20251;-48
2023/06/07 12:51:24;;;;;;;5.27;4.40;;;;;;;21.44;59.55;97802.97;6078508;29;20232;-49
2023/06/07 12:54:28;;;;;;;6.23;4.57;;;;;;;21.30;60.12;97787.56;6083907;29;20235;-47
2023/06/07 12:57:31;;;;;;;4.63;4.23;;;;;;;21.34;62.90;97793.97;6082949;29;20361;-45
2023/06/07 13:00:35;;;;;;;4.30;3.90;;;;;;;21.17;61.73;97766.72;6078775;29;20255;-46
2023/06/07 13:03:38;;;;;;;4.80;4.40;;;;;;;21.12;64.72;97764.94;6077849;29;20704;-46
2023/06/07 13:06:40;;;;;;;4.53;3.97;;;;;;;21.47;62.59;97797.72;6080697;29;20224;-46
2023/06/07 13:09:43;;;;;;;6.00;4.17;;;;;;;21.58;61.66;97795.56;6086348;29;20238;-46
2023/06/07 13:12:45;;;;;;;4.23;3.90;;;;;;;21.66;60.92;97788.56;6074696;29;20239;-47
2023/06/07 13:15:49;;;;;;;3.83;3.47;;;;;;;21.70;60.69;97779.50;6076915;29;20231;-45
2023/06/07 13:18:52;;;;;;;4.43;3.50;;;;;;;21.86;59.76;97782.59;6075173;29;20593;-46
2023/06/07 13:21:54;;;;;;;4.33;3.50;;;;;;;21.61;61.12;97755.06;6076713;29;20242;-46
2023/06/07 13:24:58;;;;;;;3.97;3.67;;;;;;;22.03;58.64;97782.69;6075306;29;20315;-46
2023/06/07 13:28:02;;;;;;;5.93;3.53;;;;;;;21.84;60.70;97785.63;6077319;29;20224;-46
2023/06/07 13:31:05;;;;;;;4.23;3.90;;;;;;;21.76;62.04;97782.88;6075543;29;20266;-45
2023/06/07 13:34:07;;;;;;;3.63;3.33;;;;;;;21.63;62.87;97771.81;6078145;29;20330;-45
2023/06/07 13:37:09;;;;;;;4.03;3.63;;;;;;;21.72;61.02;97785.41;6075209;29;20242;-47
2023/06/07 13:40:18;;;;;;;4.17;3.80;;;;;;;21.42;63.78;97762.59;6075862;29;20330;-45
2023/06/07 13:43:21;;;;;;;4.27;3.87;;;;;;;21.21;62.58;97783.16;6080619;29;20237;-46
2023/06/07 13:46:43;;;;;;;3.60;3.30;;;;;;;21.00;65.27;97775.53;6074060;29;20236;-46
2023/06/07 13:49:46;;;;;;;4.03;3.73;;;;;;;20.93;68.29;97780.56;6073856;29;20244;-45
2023/06/07 13:52:50;;;;;;;5.97;3.50;;;;;;;20.96;70.44;97784.59;6084972;28;20232;-45
2023/06/07 13:55:52;;;;;;;4.07;3.77;;;;;;;20.91;68.88;97773.88;6074668;29;20247;-46
2023/06/07 13:58:54;;;;;;;3.90;3.60;;;;;;;20.85;71.05;97776.69;6074525;29;20315;-45
2023/06/07 14:02:00;;;;;;;4.23;3.87;;;;;;;20.80;71.17;97782.22;6073707;29;20319;-45
2023/06/07 14:05:03;;;;;;;4.90;3.83;;;;;;;20.77;70.43;97787.44;6076153;29;20231;-46
2023/06/07 14:08:07;;;;;;;4.37;3.90;;;;;;;20.61;73.08;97789.69;6076526;29;20235;-45
2023/06/07 14:11:10;;;;;;;4.50;4.10;;;;;;;20.37;75.13;97798.03;6074797;29;20284;-46
2023/06/07 14:14:13;;;;;;;4.47;4.07;;;;;;;20.15;76.59;97803.31;6074705;29;20248;-47
2023/06/07 14:17:16;;;;;;;4.70;4.10;;;;;;;19.94;77.43;97801.03;6074396;29;20310;-47
2023/06/07 14:20:18;;;;;;;4.40;4.00;;;;;;;19.58;78.03;97766.53;6073607;29;20318;-47
2023/06/07 14:23:20;;;;;;;5.03;4.47;;;;;;;19.58;79.52;97788.13;6071516;29;20274;-46